Latest METAR Data

Below are the latest METARs ("Meteorological Services to Airmen Reports"), for RNAS Culdrose and Newquay Airport.

EGDR - RNAS Culdrose
Distance from station: SW 6mi, 9km
Updated: Sun, 05-Jul-2020 12:50am BST

 Wind from WSW
Wind: WSW 24 mph , 39 km/h
Temperature: 59°F , 15°C
Dew Point: 59°F , 15°C
Humidity: 100%
Barometer: 29.91 inHg , 1013 hPa
Visibility: 0 mile , 0 km
2020/07/04 23:50 EGDR 042350Z AUTO 24021KT 0200 // VV/// 15/15 Q1013
EGHQ - Newquay Airport
Distance from station: NE 21mi, 34km
Updated: Sun, 05-Jul-2020 12:50am BST
Light Rain
Light Rain
 Wind from WSW
Wind: WSW 24 mph , 39 km/h, Gust: 39 mph , 63 km/h
Temperature: 59°F , 15°C
Dew Point: 59°F , 15°C
Humidity: 100%
Barometer: 29.91 inHg , 1013 hPa
Summary: Light Rain
Visibility: 1 mile , 1 km
2020/07/04 23:50 EGHQ 042350Z AUTO 24021G34KT 1200 -RA VV/// 15/15 Q1013
 
EGTE - Exeter Airport
Distance from station: ENE 88mi, 141km
Updated: Sat, 04-Jul-2020 4:50pm BST
NOT Current
Mostly Cloudy
Mostly Cloudy
 Wind from WSW
Wind: WSW 18 mph , 30 km/h
Temperature: 68°F , 20°C
Dew Point: 61°F , 16°C
Humidity: 78%
Barometer: 29.88 inHg , 1012 hPa
Clouds: Mostly Cloudy
Visibility: 6 miles , 10 km
Cloud details: Mostly Cloudy 2000 ft
2020/07/04 15:50 EGTE 041550Z 25016KT 9999 BKN020 20/16 Q1012
EGHE - St Marys, IOS
Distance from station: W 51mi, 82km
Updated: Sat, 04-Jul-2020 3:50pm BST
NOT Current
Mist, Overcast
Mist, Overcast
 Wind from WSW
Wind: WSW 20 mph , 31 km/h
Temperature: 61°F , 16°C
Dew Point: 61°F , 16°C
Humidity: 100%
Barometer: 29.94 inHg , 1014 hPa
Summary: Mist
Clouds: Overcast
Visibility: 2 miles , 4 km
Cloud details: Overcast 200 ft
2020/07/04 14:50 EGHE 041450Z 24017KT 4000 BR OVC002 16/16 Q1014

Metar display script from Saratoga-Weather.org

 

 

UK - WEATHER STATION TOPSITES - UK World Weather Websites

Copyright © Carnkie Weather 2009 - 2020.